Time;durP1;ratioP1;P1;durP2;ratioP2;P2;SDS_P1;SDS_P2;PMS_P1;PMS_P2;Temp;Humidity;BMP_temperature;BMP_pressure;BME280_temperature;BME280_humidity;BME280_pressure;Samples;Min_cycle;Max_cycle;Signal;HPM_P1;HPM_P2
2022/11/16 00:00:18;;;;;;;6.97;3.90;;;;;;;;;;5068068;28;20475;-61
2022/11/16 00:02:44;;;;;;;6.93;3.73;;;;;;;;;;5070396;28;20387;-62
2022/11/16 00:05:09;;;;;;;6.27;3.80;;;;;;;;;;5067292;28;20158;-63
2022/11/16 00:07:34;;;;;;;8.60;4.07;;;;;;;;;;5072207;28;20017;-62
2022/11/16 00:09:59;;;;;;;8.47;4.03;;;;;;;;;;5070104;28;20029;-63
2022/11/16 00:12:25;;;;;;;7.47;3.90;;;;;;;;;;5065043;28;20029;-61
2022/11/16 00:14:50;;;;;;;8.20;4.20;;;;;;;;;;5069547;28;20032;-62
2022/11/16 00:17:16;;;;;;;7.17;3.80;;;;;;;;;;5065454;28;20111;-63
2022/11/16 00:19:41;;;;;;;8.43;4.37;;;;;;;;;;5070445;28;20229;-63
2022/11/16 00:22:06;;;;;;;12.90;4.90;;;;;;;;;;5058953;28;20318;-63
2022/11/16 00:24:31;;;;;;;7.57;4.40;;;;;;;;;;5065486;28;20027;-62
2022/11/16 00:26:57;;;;;;;6.73;4.30;;;;;;;;;;5068896;28;20039;-63
2022/11/16 00:29:23;;;;;;;8.23;4.60;;;;;;;;;;5066453;28;20078;-62
2022/11/16 00:31:49;;;;;;;10.03;4.70;;;;;;;;;;5069829;28;20020;-62
2022/11/16 00:34:14;;;;;;;8.27;4.50;;;;;;;;;;5068109;28;20028;-62
2022/11/16 00:36:40;;;;;;;7.97;4.30;;;;;;;;;;5062847;28;20214;-62
2022/11/16 00:39:05;;;;;;;7.87;4.30;;;;;;;;;;5059444;28;20098;-62
2022/11/16 00:41:30;;;;;;;8.83;5.00;;;;;;;;;;5070926;28;20032;-62
2022/11/16 00:43:56;;;;;;;10.40;4.90;;;;;;;;;;5065370;28;20098;-62
2022/11/16 00:46:21;;;;;;;7.63;4.47;;;;;;;;;;5064788;28;20021;-62
2022/11/16 00:48:46;;;;;;;8.97;4.60;;;;;;;;;;5066725;28;20056;-62
2022/11/16 00:51:11;;;;;;;8.00;4.60;;;;;;;;;;5067470;28;20077;-63
2022/11/16 00:53:37;;;;;;;9.20;4.90;;;;;;;;;;5063285;28;20075;-62
2022/11/16 00:56:02;;;;;;;6.60;4.30;;;;;;;;;;5063908;28;20082;-62
2022/11/16 00:58:27;;;;;;;8.00;4.53;;;;;;;;;;5065014;28;20495;-62
2022/11/16 01:00:52;;;;;;;8.00;4.13;;;;;;;;;;5068362;28;20531;-62
2022/11/16 01:03:18;;;;;;;9.87;4.87;;;;;;;;;;5066529;28;20028;-62
2022/11/16 01:05:43;;;;;;;7.40;4.40;;;;;;;;;;5064594;28;20034;-62
2022/11/16 01:08:08;;;;;;;8.00;4.60;;;;;;;;;;5068965;28;20039;-62
2022/11/16 01:10:33;;;;;;;8.37;4.47;;;;;;;;;;5070351;28;20025;-62
2022/11/16 01:12:59;;;;;;;8.47;4.27;;;;;;;;;;5071494;28;20031;-63
2022/11/16 01:15:25;;;;;;;7.77;4.40;;;;;;;;;;5065296;28;20507;-62
2022/11/16 01:17:51;;;;;;;7.43;4.13;;;;;;;;;;5071445;28;20044;-62
2022/11/16 01:20:18;;;;;;;8.77;5.03;;;;;;;;;;5063669;28;20078;-62
2022/11/16 01:22:43;;;;;;;8.27;4.53;;;;;;;;;;5067337;28;20393;-62
2022/11/16 01:25:09;;;;;;;9.00;4.13;;;;;;;;;;5062361;28;20028;-62
2022/11/16 01:27:34;;;;;;;6.57;3.10;;;;;;;;;;5070181;28;20024;-63
2022/11/16 01:30:00;;;;;;;7.70;4.37;;;;;;;;;;5064767;28;20017;-63
2022/11/16 01:32:25;;;;;;;8.13;4.60;;;;;;;;;;5063988;28;20017;-62
2022/11/16 01:34:50;;;;;;;7.93;4.97;;;;;;;;;;5068971;28;20063;-63
2022/11/16 01:37:16;;;;;;;11.23;4.83;;;;;;;;;;5070997;28;20455;-62
2022/11/16 01:39:41;;;;;;;9.23;4.83;;;;;;;;;;5071478;28;20427;-62
2022/11/16 01:42:09;;;;;;;7.63;4.43;;;;;;;;;;5071192;28;20033;-62
2022/11/16 01:44:34;;;;;;;7.33;4.37;;;;;;;;;;5064358;28;20116;-62
2022/11/16 01:47:00;;;;;;;9.73;4.63;;;;;;;;;;5063439;28;20528;-62
2022/11/16 01:49:27;;;;;;;8.33;4.83;;;;;;;;;;5070265;28;20020;-62
2022/11/16 01:51:56;;;;;;;7.73;4.93;;;;;;;;;;5060986;28;20028;-62
2022/11/16 01:54:21;;;;;;;9.90;5.30;;;;;;;;;;5067132;28;20506;-61
2022/11/16 01:56:47;;;;;;;8.87;4.43;;;;;;;;;;5066625;28;20025;-62
2022/11/16 01:59:13;;;;;;;8.60;4.70;;;;;;;;;;5061679;28;20033;-62
2022/11/16 02:01:39;;;;;;;8.33;4.93;;;;;;;;;;5061540;28;20031;-62
2022/11/16 02:04:04;;;;;;;8.70;4.87;;;;;;;;;;5066145;28;20028;-62
2022/11/16 02:06:32;;;;;;;10.27;5.40;;;;;;;;;;5065456;28;20142;-62
2022/11/16 02:12:09;;;;;;;7.63;4.80;;;;;;;;;;5057839;28;20124;-61
2022/11/16 02:14:41;;;;;;;9.63;5.50;;;;;;;;;;5069442;28;20427;-61
2022/11/16 02:17:24;;;;;;;9.20;5.22;;;;;;;;;;5061054;28;20087;-62
2022/11/16 02:19:55;;;;;;;10.43;5.27;;;;;;;;;;5053690;28;20467;-62
2022/11/16 02:22:39;;;;;;;8.63;4.82;;;;;;;;;;5071020;28;20031;-61
2022/11/16 02:25:25;;;;;;;7.97;5.23;;;;;;;;;;5061566;28;20035;-61
2022/11/16 02:27:56;;;;;;;9.27;5.30;;;;;;;;;;5051692;28;20044;-61
2022/11/16 02:30:22;;;;;;;8.30;4.30;;;;;;;;;;5069024;28;20450;-61
2022/11/16 02:32:50;;;;;;;8.17;4.37;;;;;;;;;;5069851;28;20163;-61
2022/11/16 02:35:22;;;;;;;8.17;4.80;;;;;;;;;;5064916;28;20021;-62
2022/11/16 02:37:47;;;;;;;;;;;;;;;;;;5073226;28;20036;-62
2022/11/16 02:40:14;;;;;;;8.98;5.18;;;;;;;;;;5067519;28;19919;-62
2022/11/16 02:42:50;;;;;;;9.37;5.10;;;;;;;;;;5071380;28;20404;-62
2022/11/16 02:45:19;;;;;;;10.77;5.83;;;;;;;;;;5066467;28;20025;-62
2022/11/16 02:47:45;;;;;;;8.97;5.70;;;;;;;;;;5070204;28;20048;-62
2022/11/16 02:50:13;;;;;;;8.40;5.30;;;;;;;;;;5069278;28;20028;-62
2022/11/16 02:52:38;;;;;;;10.27;6.03;;;;;;;;;;5068889;28;20021;-62
2022/11/16 02:55:04;;;;;;;9.17;5.33;;;;;;;;;;5069204;28;20032;-62
2022/11/16 02:57:32;;;;;;;9.73;5.20;;;;;;;;;;5070192;28;20032;-63
2022/11/16 02:59:58;;;;;;;8.77;5.43;;;;;;;;;;5069687;28;20037;-62
2022/11/16 03:02:26;;;;;;;10.13;6.27;;;;;;;;;;5065179;28;20170;-64
2022/11/16 03:04:54;;;;;;;10.67;4.20;;;;;;;;;;5067800;28;20541;-63
2022/11/16 03:07:22;;;;;;;10.83;5.50;;;;;;;;;;5071543;28;20361;-63
2022/11/16 03:09:49;;;;;;;10.80;4.87;;;;;;;;;;5068340;28;20029;-62
2022/11/16 03:12:15;;;;;;;9.77;5.87;;;;;;;;;;5069354;28;20460;-63
2022/11/16 03:14:43;;;;;;;9.73;5.70;;;;;;;;;;5068193;28;20495;-64
2022/11/16 03:17:16;;;;;;;5.83;2.77;;;;;;;;;;5070157;28;20028;-64
2022/11/16 03:19:50;;;;;;;11.50;6.53;;;;;;;;;;5072477;28;20107;-63
2022/11/16 03:22:34;;;;;;;10.40;5.67;;;;;;;;;;5070129;28;20175;-63
2022/11/16 03:24:59;;;;;;;9.97;5.73;;;;;;;;;;5072137;28;20124;-64
2022/11/16 03:27:36;;;;;;;11.07;5.83;;;;;;;;;;5070828;28;20527;-64
2022/11/16 03:30:06;;;;;;;9.97;5.97;;;;;;;;;;5072493;28;20099;-64
2022/11/16 03:32:31;;;;;;;14.57;6.17;;;;;;;;;;5067755;28;20023;-64
2022/11/16 03:35:01;;;;;;;6.77;4.00;;;;;;;;;;5068783;28;20033;-64
2022/11/16 03:37:26;;;;;;;9.53;5.63;;;;;;;;;;5073396;28;20028;-63
2022/11/16 03:39:52;;;;;;;10.47;6.23;;;;;;;;;;5071797;28;20036;-64
2022/11/16 03:42:19;;;;;;;8.53;3.90;;;;;;;;;;5070327;28;20024;-67
2022/11/16 03:44:45;;;;;;;13.40;6.40;;;;;;;;;;5067557;28;20048;-64
2022/11/16 03:47:11;;;;;;;10.60;6.40;;;;;;;;;;5065797;28;20059;-65
2022/11/16 03:49:36;;;;;;;10.00;5.40;;;;;;;;;;5066870;28;20060;-63
2022/11/16 03:52:01;;;;;;;9.33;4.83;;;;;;;;;;5067958;28;20078;-66
2022/11/16 03:54:27;;;;;;;11.43;6.30;;;;;;;;;;5070013;28;20091;-66
2022/11/16 03:56:52;;;;;;;10.93;6.43;;;;;;;;;;5064909;28;20046;-66
2022/11/16 03:59:17;;;;;;;13.47;7.83;;;;;;;;;;5072348;28;20032;-64
2022/11/16 04:01:42;;;;;;;13.83;6.80;;;;;;;;;;5067419;28;20035;-64
2022/11/16 04:24:10;;;;;;;10.10;6.17;;;;;;;;;;5070966;28;20037;-64
2022/11/16 04:26:05;;;;;;;12.23;5.60;;;;;;;;;;5070830;28;20082;-63
2022/11/16 04:28:32;;;;;;;12.23;6.47;;;;;;;;;;5075269;28;20024;-64
2022/11/16 04:39:10;;;;;;;10.00;5.10;;;;;;;;;;5071659;28;20140;-64
2022/11/16 04:44:21;;;;;;;12.00;6.60;;;;;;;;;;5065597;28;20095;-67
2022/11/16 04:47:05;;;;;;;15.73;7.90;;;;;;;;;;5059733;28;20021;-65
2022/11/16 04:49:30;;;;;;;14.10;6.77;;;;;;;;;;5066400;28;20024;-68
2022/11/16 04:51:56;;;;;;;11.10;5.57;;;;;;;;;;5064300;28;20029;-65
2022/11/16 04:54:21;;;;;;;16.47;9.07;;;;;;;;;;5068680;28;20075;-65
2022/11/16 04:56:46;;;;;;;12.87;6.93;;;;;;;;;;5066354;28;20480;-65
2022/11/16 04:59:11;;;;;;;13.33;7.03;;;;;;;;;;5068371;28;20428;-69
2022/11/16 05:04:20;;;;;;;14.40;7.73;;;;;;;;;;5070828;28;20439;-64
2022/11/16 05:06:46;;;;;;;14.07;7.00;;;;;;;;;;5065266;28;20024;-67
2022/11/16 05:09:11;;;;;;;13.43;6.93;;;;;;;;;;5064280;28;20024;-69
2022/11/16 05:11:37;;;;;;;14.50;7.43;;;;;;;;;;5065225;28;20016;-64
2022/11/16 05:14:02;;;;;;;17.73;9.43;;;;;;;;;;5067550;28;20025;-64
2022/11/16 05:16:27;;;;;;;15.97;8.67;;;;;;;;;;5068077;28;20025;-65
2022/11/16 05:21:37;;;;;;;13.07;7.57;;;;;;;;;;5069200;28;20163;-66
2022/11/16 05:26:46;;;;;;;16.47;8.40;;;;;;;;;;5064792;28;20032;-64
2022/11/16 05:29:11;;;;;;;8.17;3.80;;;;;;;;;;5066876;28;20463;-68
2022/11/16 05:31:36;;;;;;;16.10;8.83;;;;;;;;;;5065473;28;20017;-64
2022/11/16 05:34:01;;;;;;;20.50;11.50;;;;;;;;;;5064840;28;20056;-64
2022/11/16 05:36:27;;;;;;;17.17;8.87;;;;;;;;;;5059645;28;20068;-66
2022/11/16 05:38:52;;;;;;;18.73;9.53;;;;;;;;;;5062876;28;20501;-63
2022/11/16 05:41:17;;;;;;;8.80;4.50;;;;;;;;;;5068156;28;20103;-65
2022/11/16 05:43:42;;;;;;;18.03;9.63;;;;;;;;;;5069508;28;20102;-64
2022/11/16 05:46:08;;;;;;;11.57;6.17;;;;;;;;;;5064151;28;20016;-64
2022/11/16 05:48:33;;;;;;;14.47;8.07;;;;;;;;;;5066261;28;20399;-66
2022/11/16 05:50:58;;;;;;;10.20;5.07;;;;;;;;;;5061236;28;20024;-68
2022/11/16 05:53:24;;;;;;;12.13;7.07;;;;;;;;;;5069359;28;20021;-64
2022/11/16 05:55:49;;;;;;;15.07;7.93;;;;;;;;;;5066215;28;20028;-65
2022/11/16 05:58:14;;;;;;;13.57;6.63;;;;;;;;;;5063523;28;20075;-63
2022/11/16 06:00:39;;;;;;;15.77;8.03;;;;;;;;;;5065223;28;20111;-65
2022/11/16 06:03:05;;;;;;;18.47;8.13;;;;;;;;;;5064695;28;20391;-65
2022/11/16 06:05:30;;;;;;;18.27;9.17;;;;;;;;;;5067436;28;20050;-65
2022/11/16 06:07:55;;;;;;;14.23;8.20;;;;;;;;;;5069764;28;20036;-67
2022/11/16 06:10:20;;;;;;;18.23;9.63;;;;;;;;;;5066817;28;20036;-64
2022/11/16 06:12:45;;;;;;;10.33;5.50;;;;;;;;;;5065585;28;20419;-67
2022/11/16 06:15:11;;;;;;;9.27;4.73;;;;;;;;;;5068709;28;20086;-65
2022/11/16 06:17:36;;;;;;;18.73;9.13;;;;;;;;;;5076668;28;20111;-66
2022/11/16 06:20:01;;;;;;;16.80;9.37;;;;;;;;;;5077595;28;20043;-64
2022/11/16 06:22:26;;;;;;;17.23;9.77;;;;;;;;;;5070724;28;20081;-65
2022/11/16 06:24:52;;;;;;;17.23;9.50;;;;;;;;;;5080538;28;20399;-64
2022/11/16 06:27:17;;;;;;;17.53;8.40;;;;;;;;;;5082024;28;20028;-65
2022/11/16 06:29:42;;;;;;;17.57;9.50;;;;;;;;;;5074612;28;20380;-64
2022/11/16 06:32:07;;;;;;;18.57;9.87;;;;;;;;;;5080981;28;20368;-66
2022/11/16 06:34:32;;;;;;;13.77;6.30;;;;;;;;;;5080522;28;20506;-64
2022/11/16 06:36:58;;;;;;;17.87;9.73;;;;;;;;;;5078067;28;20115;-64
2022/11/16 06:39:23;;;;;;;17.27;8.50;;;;;;;;;;5075270;28;20468;-66
2022/11/16 06:41:48;;;;;;;19.17;10.37;;;;;;;;;;5076054;28;20108;-65
2022/11/16 06:44:13;;;;;;;7.90;4.20;;;;;;;;;;5067799;28;20107;-65
2022/11/16 06:46:39;;;;;;;17.50;9.10;;;;;;;;;;5058926;28;20116;-64
2022/11/16 06:49:04;;;;;;;14.30;6.50;;;;;;;;;;5071906;28;20447;-64
2022/11/16 06:51:29;;;;;;;19.13;11.07;;;;;;;;;;5074303;28;20484;-66
2022/11/16 06:53:54;;;;;;;14.70;5.63;;;;;;;;;;5074561;28;20025;-63
2022/11/16 06:56:20;;;;;;;23.70;12.60;;;;;;;;;;5074038;28;20028;-67
2022/11/16 06:58:45;;;;;;;23.13;12.00;;;;;;;;;;5073466;28;20029;-67
2022/11/16 07:01:11;;;;;;;21.83;12.00;;;;;;;;;;5086217;28;20024;-65
2022/11/16 07:03:36;;;;;;;21.23;11.30;;;;;;;;;;5094484;28;20028;-65
2022/11/16 07:06:08;;;;;;;14.33;7.47;;;;;;;;;;5094565;28;20024;-64
2022/11/16 07:08:34;;;;;;;12.90;7.30;;;;;;;;;;5094142;28;20020;-64
2022/11/16 07:11:03;;;;;;;22.63;11.33;;;;;;;;;;5094531;28;20380;-66
2022/11/16 07:13:29;;;;;;;17.80;9.10;;;;;;;;;;5087424;28;20465;-65
2022/11/16 07:15:59;;;;;;;20.87;9.77;;;;;;;;;;5054023;28;20388;-64
2022/11/16 07:18:24;;;;;;;20.83;10.63;;;;;;;;;;5053831;28;20032;-65
2022/11/16 07:20:49;;;;;;;17.93;10.63;;;;;;;;;;5053697;28;20017;-65
2022/11/16 07:23:14;;;;;;;14.70;7.93;;;;;;;;;;5054242;28;20031;-68
2022/11/16 07:25:40;;;;;;;18.70;10.37;;;;;;;;;;5053791;28;20466;-65
2022/11/16 07:28:05;;;;;;;14.80;6.20;;;;;;;;;;5053588;28;20520;-65
2022/11/16 07:30:31;;;;;;;20.70;10.57;;;;;;;;;;5053932;28;20017;-64
2022/11/16 07:32:57;;;;;;;20.40;11.00;;;;;;;;;;5060812;28;20024;-65
2022/11/16 07:35:23;;;;;;;19.70;10.30;;;;;;;;;;5073778;28;20016;-65
2022/11/16 07:37:48;;;;;;;18.73;9.53;;;;;;;;;;5073890;28;20036;-66
2022/11/16 07:40:13;;;;;;;21.67;11.20;;;;;;;;;;5073322;28;20100;-66
2022/11/16 07:42:38;;;;;;;17.67;9.87;;;;;;;;;;5073812;28;20095;-64
2022/11/16 07:45:06;;;;;;;20.17;10.47;;;;;;;;;;5073492;28;20246;-64
2022/11/16 07:47:34;;;;;;;21.53;11.60;;;;;;;;;;5073249;28;20071;-67
2022/11/16 07:49:59;;;;;;;23.10;12.50;;;;;;;;;;5074579;28;20475;-66
2022/11/16 07:52:24;;;;;;;21.73;12.80;;;;;;;;;;5093064;28;20021;-64
2022/11/16 07:54:49;;;;;;;20.40;10.57;;;;;;;;;;5093147;28;20012;-64
2022/11/16 07:57:14;;;;;;;21.00;11.87;;;;;;;;;;5092963;28;20020;-65
2022/11/16 07:59:40;;;;;;;22.13;12.30;;;;;;;;;;5093067;28;20027;-64
2022/11/16 08:02:05;;;;;;;22.27;13.40;;;;;;;;;;5093056;28;20028;-67
2022/11/16 08:04:30;;;;;;;21.63;11.93;;;;;;;;;;5092982;28;20023;-65
2022/11/16 08:06:55;;;;;;;20.10;10.20;;;;;;;;;;5092847;28;20051;-64
2022/11/16 08:09:21;;;;;;;17.70;10.20;;;;;;;;;;5092887;28;20016;-65
2022/11/16 08:11:46;;;;;;;17.13;9.60;;;;;;;;;;5093219;28;20082;-64
2022/11/16 08:14:11;;;;;;;19.67;9.73;;;;;;;;;;5092925;28;20099;-65
2022/11/16 08:16:36;;;;;;;21.30;10.70;;;;;;;;;;5093010;28;20111;-66
2022/11/16 08:19:02;;;;;;;17.20;9.43;;;;;;;;;;5092753;28;20032;-64
2022/11/16 08:21:27;;;;;;;18.93;10.07;;;;;;;;;;5092917;28;20032;-68
2022/11/16 08:23:52;;;;;;;18.77;10.80;;;;;;;;;;5093019;28;20035;-64
2022/11/16 08:26:18;;;;;;;13.60;7.30;;;;;;;;;;5092749;28;20095;-64
2022/11/16 08:28:45;;;;;;;15.93;9.23;;;;;;;;;;5092439;28;20035;-65
2022/11/16 08:31:11;;;;;;;19.00;10.50;;;;;;;;;;5092253;28;20073;-65
2022/11/16 08:33:36;;;;;;;19.90;10.60;;;;;;;;;;5090685;28;20047;-64
2022/11/16 08:36:05;;;;;;;20.27;11.80;;;;;;;;;;5073972;28;20028;-65
2022/11/16 08:38:31;;;;;;;20.53;11.07;;;;;;;;;;5059659;28;20032;-65
2022/11/16 08:40:56;;;;;;;23.67;12.80;;;;;;;;;;5072069;28;20051;-65
2022/11/16 08:43:21;;;;;;;19.47;10.30;;;;;;;;;;5071838;28;20024;-65
2022/11/16 08:45:47;;;;;;;19.90;11.07;;;;;;;;;;5072228;28;20028;-65
2022/11/16 08:48:12;;;;;;;11.83;5.83;;;;;;;;;;5072002;28;20047;-66
2022/11/16 08:50:38;;;;;;;20.93;11.17;;;;;;;;;;5068833;28;20475;-65
2022/11/16 08:53:03;;;;;;;16.87;9.87;;;;;;;;;;5072259;28;20430;-64
2022/11/16 08:55:28;;;;;;;15.40;8.27;;;;;;;;;;5072385;28;20358;-64
2022/11/16 08:57:54;;;;;;;17.43;9.33;;;;;;;;;;5072139;28;20046;-64
2022/11/16 09:00:19;;;;;;;14.60;6.83;;;;;;;;;;5072073;28;20471;-65
2022/11/16 09:02:44;;;;;;;13.97;5.93;;;;;;;;;;5072253;28;20391;-64
2022/11/16 09:05:10;;;;;;;15.03;7.77;;;;;;;;;;5071792;28;20135;-63
2022/11/16 09:07:39;;;;;;;14.60;7.13;;;;;;;;;;5072226;28;20104;-64
2022/11/16 09:10:05;;;;;;;14.97;7.77;;;;;;;;;;5072069;28;20027;-68
2022/11/16 09:12:30;;;;;;;18.50;9.60;;;;;;;;;;5072160;28;20020;-65
2022/11/16 09:14:55;;;;;;;23.60;11.73;;;;;;;;;;5071768;28;20056;-65
2022/11/16 09:17:20;;;;;;;19.47;11.20;;;;;;;;;;5071321;28;20032;-65
2022/11/16 09:19:46;;;;;;;22.60;12.20;;;;;;;;;;5068183;28;20021;-65
2022/11/16 09:22:11;;;;;;;20.60;10.90;;;;;;;;;;5071547;28;20020;-65
2022/11/16 09:24:36;;;;;;;22.37;11.83;;;;;;;;;;5071406;28;20021;-65
2022/11/16 09:27:01;;;;;;;22.40;12.30;;;;;;;;;;5071751;28;20360;-65
2022/11/16 09:29:27;;;;;;;19.37;10.77;;;;;;;;;;5071460;28;20030;-65
2022/11/16 09:31:52;;;;;;;17.63;10.20;;;;;;;;;;5071690;28;20220;-65
2022/11/16 09:34:17;;;;;;;18.30;10.47;;;;;;;;;;5071258;28;20025;-64
2022/11/16 09:36:43;;;;;;;18.80;10.73;;;;;;;;;;5071648;28;20423;-64
2022/11/16 09:39:11;;;;;;;15.63;8.47;;;;;;;;;;5071702;28;20468;-65
2022/11/16 09:41:58;;;;;;;20.30;11.50;;;;;;;;;;5071404;28;20051;-65
2022/11/16 09:44:39;;;;;;;23.60;13.53;;;;;;;;;;5072926;28;20390;-66
2022/11/16 09:47:08;;;;;;;25.37;12.90;;;;;;;;;;5075152;28;20075;-66
2022/11/16 09:49:41;;;;;;;19.63;11.40;;;;;;;;;;5075475;28;20298;-65
2022/11/16 09:52:23;;;;;;;20.53;12.03;;;;;;;;;;5075203;28;20028;-66
2022/11/16 09:54:48;;;;;;;;;;;;;;;;;;5076852;28;20539;-64
2022/11/16 09:57:17;;;;;;;20.90;10.97;;;;;;;;;;5076940;28;19995;-66
2022/11/16 09:59:47;;;;;;;21.07;11.53;;;;;;;;;;5075406;28;20020;-66
2022/11/16 10:02:24;;;;;;;18.63;10.57;;;;;;;;;;5075003;28;20019;-65
2022/11/16 10:04:49;;;;;;;21.30;11.43;;;;;;;;;;5074921;28;20024;-63
2022/11/16 10:07:16;;;;;;;23.30;12.77;;;;;;;;;;5075097;28;20028;-64
2022/11/16 10:09:42;;;;;;;24.10;13.43;;;;;;;;;;5074895;28;20032;-64
2022/11/16 10:12:07;;;;;;;23.17;12.67;;;;;;;;;;5075520;28;20021;-63
2022/11/16 10:14:32;;;;;;;25.90;13.67;;;;;;;;;;5075147;28;20116;-64
2022/11/16 10:16:58;;;;;;;23.97;13.43;;;;;;;;;;5075090;28;20423;-63
2022/11/16 10:19:23;;;;;;;24.80;13.97;;;;;;;;;;5074921;28;20035;-63
2022/11/16 10:22:05;;;;;;;23.27;13.43;;;;;;;;;;5074929;28;20029;-63
2022/11/16 10:24:33;;;;;;;20.00;10.03;;;;;;;;;;5074558;28;20017;-63
2022/11/16 10:27:05;;;;;;;21.70;10.73;;;;;;;;;;5074802;28;20021;-63
2022/11/16 10:29:48;;;;;;;26.00;13.83;;;;;;;;;;5074760;28;20099;-63
2022/11/16 10:32:27;;;;;;;20.03;11.30;;;;;;;;;;5089107;28;20110;-64
2022/11/16 10:34:52;;;;;;;22.93;13.17;;;;;;;;;;5094329;28;20028;-64
2022/11/16 10:37:18;;;;;;;22.40;12.97;;;;;;;;;;5095025;28;20046;-64
2022/11/16 10:39:45;;;;;;;22.43;13.13;;;;;;;;;;5094725;28;20102;-64
2022/11/16 10:42:13;;;;;;;23.33;13.63;;;;;;;;;;5094894;28;20138;-63
2022/11/16 10:44:42;;;;;;;24.57;13.60;;;;;;;;;;5094616;28;20058;-65
2022/11/16 10:47:21;;;;;;;26.63;15.30;;;;;;;;;;5094399;28;20032;-64
2022/11/16 10:49:57;;;;;;;25.90;14.47;;;;;;;;;;5074665;28;20100;-64
2022/11/16 10:52:24;;;;;;;25.00;15.20;;;;;;;;;;5074321;28;20373;-64
2022/11/16 10:54:49;;;;;;;27.33;15.73;;;;;;;;;;5073956;28;20021;-64
2022/11/16 10:57:15;;;;;;;23.30;14.13;;;;;;;;;;5073480;28;20030;-64
2022/11/16 10:59:52;;;;;;;26.30;15.40;;;;;;;;;;5074284;28;20016;-64
2022/11/16 11:02:35;;;;;;;25.07;14.73;;;;;;;;;;5074233;28;20024;-63
2022/11/16 11:05:05;;;;;;;26.20;14.53;;;;;;;;;;5073802;28;20028;-63
2022/11/16 11:07:38;;;;;;;26.50;15.47;;;;;;;;;;5073515;28;20024;-65
2022/11/16 11:10:04;;;;;;;22.90;12.13;;;;;;;;;;5074128;28;20471;-63
2022/11/16 11:12:39;;;;;;;24.90;14.57;;;;;;;;;;5073818;28;20127;-64
2022/11/16 11:15:10;;;;;;;21.83;11.67;;;;;;;;;;5073776;28;20073;-63
2022/11/16 11:17:37;;;;;;;21.48;12.73;;;;;;;;;;5073937;28;20017;-63
2022/11/16 11:20:14;;;;;;;22.93;13.80;;;;;;;;;;5070228;28;20118;-63
2022/11/16 11:23:06;;;;;;;20.30;11.97;;;;;;;;;;5073852;28;20387;-62
2022/11/16 11:25:33;;;;;;;21.58;12.20;;;;;;;;;;5049575;28;20053;-63
2022/11/16 11:28:04;;;;;;;19.80;11.70;;;;;;;;;;5073830;28;20024;-63
2022/11/16 11:30:29;;;;;;;21.63;12.23;;;;;;;;;;5073535;28;20028;-63
2022/11/16 11:32:55;;;;;;;18.53;9.90;;;;;;;;;;5073535;28;20033;-63
2022/11/16 11:35:22;;;;;;;23.00;11.30;;;;;;;;;;5055187;28;20035;-63
2022/11/16 11:37:50;;;;;;;21.00;12.87;;;;;;;;;;5073748;28;20534;-63
2022/11/16 11:40:18;;;;;;;21.87;12.80;;;;;;;;;;5073066;28;20033;-64
2022/11/16 11:42:50;;;;;;;22.87;12.40;;;;;;;;;;5073564;28;20519;-64
2022/11/16 11:45:16;;;;;;;23.50;14.63;;;;;;;;;;5073076;28;20021;-65
2022/11/16 11:47:53;;;;;;;29.07;16.83;;;;;;;;;;5075649;28;20414;-65
2022/11/16 11:50:20;;;;;;;32.20;16.67;;;;;;;;;;5053215;28;20419;-64
2022/11/16 11:52:48;;;;;;;32.57;18.60;;;;;;;;;;5052963;28;20025;-65
2022/11/16 11:55:14;;;;;;;33.63;17.87;;;;;;;;;;5052878;28;20036;-65
2022/11/16 11:57:41;;;;;;;30.27;17.27;;;;;;;;;;5053158;28;20520;-65
2022/11/16 12:00:08;;;;;;;36.70;18.97;;;;;;;;;;5053092;28;20464;-65
2022/11/16 12:02:43;;;;;;;36.37;20.20;;;;;;;;;;5052970;28;20103;-64
2022/11/16 12:05:11;;;;;;;33.87;19.40;;;;;;;;;;5053061;28;20021;-64
2022/11/16 12:07:45;;;;;;;25.60;14.60;;;;;;;;;;5051592;28;20108;-67
2022/11/16 12:10:10;;;;;;;32.30;17.13;;;;;;;;;;5052835;28;20028;-64
2022/11/16 12:12:54;;;;;;;29.23;16.90;;;;;;;;;;5052564;28;20021;-64
2022/11/16 12:15:19;;;;;;;37.37;21.23;;;;;;;;;;5052508;28;20021;-64
2022/11/16 12:17:50;;;;;;;32.47;18.90;;;;;;;;;;5052425;28;20071;-64
2022/11/16 12:20:36;;;;;;;26.85;14.73;;;;;;;;;;5052461;28;20021;-64
2022/11/16 12:23:01;;;;;;;20.53;10.53;;;;;;;;;;5052103;28;20021;-63
2022/11/16 12:25:35;;;;;;;26.27;16.40;;;;;;;;;;5052284;28;20043;-63
2022/11/16 12:28:15;;;;;;;27.13;16.47;;;;;;;;;;5052254;28;20029;-63
2022/11/16 12:30:47;;;;;;;27.63;16.07;;;;;;;;;;5052428;28;20410;-63
2022/11/16 12:33:16;;;;;;;27.80;16.43;;;;;;;;;;5052822;28;20036;-63
2022/11/16 12:35:48;;;;;;;29.83;17.73;;;;;;;;;;5060149;28;20020;-63
2022/11/16 12:38:19;;;;;;;27.30;14.73;;;;;;;;;;5085092;28;20437;-63
2022/11/16 12:41:10;;;;;;;33.35;19.23;;;;;;;;;;5077933;28;20021;-63
2022/11/16 12:43:44;;;;;;;27.02;15.77;;;;;;;;;;5048353;28;20032;-63
2022/11/16 12:46:28;;;;;;;33.03;19.17;;;;;;;;;;5071538;28;20024;-63
2022/11/16 12:48:53;;;;;;;25.03;14.63;;;;;;;;;;5072085;28;20403;-62
2022/11/16 12:51:24;;;;;;;14.73;7.93;;;;;;;;;;5071828;28;20027;-62
2022/11/16 12:53:59;;;;;;;24.80;14.52;;;;;;;;;;5072008;28;20357;-62
2022/11/16 12:56:32;;;;;;;26.90;17.53;;;;;;;;;;5071901;28;20031;-62
2022/11/16 12:59:00;;;;;;;25.27;14.37;;;;;;;;;;5071988;28;20020;-63
2022/11/16 13:01:32;;;;;;;26.10;14.63;;;;;;;;;;5071686;28;20107;-63
2022/11/16 13:04:04;;;;;;;25.40;15.97;;;;;;;;;;5071893;28;20107;-63
2022/11/16 13:06:32;;;;;;;25.80;14.37;;;;;;;;;;5071541;28;20055;-63
2022/11/16 13:09:01;;;;;;;25.70;15.23;;;;;;;;;;5071921;28;20384;-62
2022/11/16 13:11:34;;;;;;;24.27;15.13;;;;;;;;;;5071672;28;20058;-63
2022/11/16 13:14:02;;;;;;;24.53;16.67;;;;;;;;;;5071552;28;20017;-63
2022/11/16 13:16:27;;;;;;;23.53;14.97;;;;;;;;;;5071819;28;20483;-62
2022/11/16 13:18:53;;;;;;;24.27;15.33;;;;;;;;;;5071526;28;20122;-63
2022/11/16 13:21:19;;;;;;;41.07;14.00;;;;;;;;;;5068438;28;20055;-63
2022/11/16 13:24:02;;;;;;;17.10;9.97;;;;;;;;;;5071562;28;20059;-63
2022/11/16 13:26:30;;;;;;;26.93;17.43;;;;;;;;;;5071699;28;20387;-62
2022/11/16 13:29:05;;;;;;;24.17;14.07;;;;;;;;;;5071767;28;20040;-62
2022/11/16 13:31:37;;;;;;;24.63;15.87;;;;;;;;;;5071173;28;20051;-63
2022/11/16 13:34:05;;;;;;;21.83;12.25;;;;;;;;;;5071319;28;20048;-62
2022/11/16 13:36:30;;;;;;;24.17;15.73;;;;;;;;;;5071502;28;20024;-63
2022/11/16 13:38:56;;;;;;;28.97;17.43;;;;;;;;;;5071343;28;20021;-62
2022/11/16 13:41:25;;;;;;;30.87;18.17;;;;;;;;;;5071477;28;20021;-62
2022/11/16 13:43:50;;;;;;;31.27;19.40;;;;;;;;;;5071223;28;20028;-62
2022/11/16 13:46:16;;;;;;;32.53;17.43;;;;;;;;;;5071443;28;20058;-62
2022/11/16 13:48:43;;;;;;;34.00;20.50;;;;;;;;;;5071451;28;20019;-62
2022/11/16 13:51:16;;;;;;;31.10;18.33;;;;;;;;;;5071528;28;20017;-62
2022/11/16 13:53:49;;;;;;;35.73;20.73;;;;;;;;;;5079377;28;20016;-63
2022/11/16 13:56:15;;;;;;;29.43;15.47;;;;;;;;;;5091274;28;20020;-63
2022/11/16 13:58:46;;;;;;;28.97;15.67;;;;;;;;;;5091462;28;20096;-62
2022/11/16 14:01:15;;;;;;;36.43;22.53;;;;;;;;;;5091213;28;20028;-63
2022/11/16 14:03:41;;;;;;;34.07;18.17;;;;;;;;;;5091248;28;20027;-63
2022/11/16 14:06:26;;;;;;;43.23;23.87;;;;;;;;;;5091435;28;20016;-63
2022/11/16 14:08:58;;;;;;;45.07;25.10;;;;;;;;;;5062561;28;20028;-63
2022/11/16 14:11:33;;;;;;;41.43;23.47;;;;;;;;;;5091489;28;20477;-63
2022/11/16 14:14:00;;;;;;;43.87;24.77;;;;;;;;;;5091179;28;20030;-63
2022/11/16 14:16:25;;;;;;;42.90;21.43;;;;;;;;;;5091399;28;20110;-63
2022/11/16 14:18:51;;;;;;;38.67;20.67;;;;;;;;;;5091079;28;20043;-62
2022/11/16 14:21:35;;;;;;;31.70;15.80;;;;;;;;;;5091031;28;20065;-64
2022/11/16 14:24:00;;;;;;;43.13;23.77;;;;;;;;;;5091000;28;20086;-62
2022/11/16 14:26:35;;;;;;;43.07;23.50;;;;;;;;;;5091105;28;20028;-63
2022/11/16 14:29:03;;;;;;;46.40;25.77;;;;;;;;;;5090871;28;20023;-63
2022/11/16 14:31:29;;;;;;;45.23;24.17;;;;;;;;;;5092786;28;20012;-63
2022/11/16 14:33:56;;;;;;;46.77;24.87;;;;;;;;;;5094677;28;20077;-63
2022/11/16 14:36:36;;;;;;;48.80;25.40;;;;;;;;;;5087405;28;20032;-63
2022/11/16 14:39:20;;;;;;;45.27;23.57;;;;;;;;;;5054192;28;20040;-63
2022/11/16 14:41:46;;;;;;;47.33;25.07;;;;;;;;;;5054407;28;20041;-63
2022/11/16 14:44:11;;;;;;;27.53;14.03;;;;;;;;;;5054551;28;20510;-63
2022/11/16 14:46:37;;;;;;;41.27;19.93;;;;;;;;;;5091807;28;20090;-63
2022/11/16 14:49:03;;;;;;;49.27;25.23;;;;;;;;;;5084222;28;20035;-62
2022/11/16 14:51:30;;;;;;;49.07;26.47;;;;;;;;;;5074383;28;20514;-66
2022/11/16 14:53:58;;;;;;;35.37;16.47;;;;;;;;;;5074293;28;20032;-63
2022/11/16 14:56:23;;;;;;;36.43;19.03;;;;;;;;;;5074276;28;20067;-62
2022/11/16 14:58:51;;;;;;;37.93;18.87;;;;;;;;;;5074046;28;20407;-63
2022/11/16 15:01:18;;;;;;;45.80;24.57;;;;;;;;;;5074436;28;20027;-62
2022/11/16 15:03:46;;;;;;;38.73;19.10;;;;;;;;;;5074159;28;20082;-63
2022/11/16 15:06:14;;;;;;;33.30;16.83;;;;;;;;;;5074123;28;20353;-63
2022/11/16 15:08:45;;;;;;;35.70;16.77;;;;;;;;;;5074052;28;20016;-62
2022/11/16 15:11:18;;;;;;;25.92;10.90;;;;;;;;;;5073985;28;20070;-64